This is the latest recevied weather packets stored in our database for station/object KE4BFX. If no packets are shown the sender has not sent any weather packets the latest 10 day(s).
| Time | Temp. | Humidity | Pressure | Rain* | Wind** | Luminosity | Snow |
|---|---|---|---|---|---|---|---|
| 1778110212 | 24.44° C | 88% | 1012.5 hPa | 0 mm | - | 7 W/m² | - |
| 1778106012 | 25° C | 87% | 1013.3 hPa | 0 mm | - | 51 W/m² | - |
| 1778103612 | 25.56° C | 85% | 1013.2 hPa | 0 mm | - | 60 W/m² | - |
| 1778100613 | 26.67° C | 83% | 1013.7 hPa | 0 mm | - | 135 W/m² | - |
| 1778098812 | 26.67° C | 83% | 1013.8 hPa | 0 mm | - | 316 W/m² | - |
| 1778095212 | 26.67° C | 84% | 1014.4 hPa | 0 mm | - | 308 W/m² | - |
| 1778093412 | 25.56° C | 87% | 1014.9 hPa | 0 mm | - | 492 W/m² | - |
| 1778089213 | 25.56° C | 86% | 1015.4 hPa | 0 mm | - | 149 W/m² | - |
| 1778088012 | 25.56° C | 86% | 1015.6 hPa | 0 mm | - | 165 W/m² | - |
| 1778084412 | 25° C | 88% | 1015.5 hPa | 0 mm | - | 148 W/m² | - |
| 1778070013 | 21.67° C | 91% | 1014.1 hPa | 0 mm | - | 49 W/m² | - |
| 1778056813 | 20° C | 89% | 1012.3 hPa | 0 mm | - | 0 W/m² | - |
| 1778053814 | 19.44° C | 89% | 1012.6 hPa | 0 mm | - | 0 W/m² | - |
| 1778051414 | 18.89° C | 88% | 1012.8 hPa | 0 mm | - | 0 W/m² | - |
| 1778047813 | 18.89° C | 87% | 1013.3 hPa | 0 mm | - | 0 W/m² | - |
| 1778046013 | 18.89° C | 87% | 1013.8 hPa | 0 mm | - | 0 W/m² | - |
| 1778045415 | 18.89° C | 87% | 1014 hPa | 0 mm | - | 0 W/m² | - |
| 1778044213 | 18.89° C | 86% | 1014 hPa | 0 mm | - | 0 W/m² | - |
| 1778043614 | 18.89° C | 86% | 1014 hPa | 0 mm | - | 0 W/m² | - |
| 1778043013 | 18.89° C | 86% | 1014.1 hPa | 0 mm | - | 0 W/m² | - |
| 1778037014 | 20° C | 84% | 1014.4 hPa | 0 mm | - | 0 W/m² | - |
| 1778034614 | 20.56° C | 83% | 1014.4 hPa | 0 mm | - | 0 W/m² | - |
| 1778031614 | 21.11° C | 82% | 1014.2 hPa | 0 mm | - | 0 W/m² | - |
| 1778026814 | 22.78° C | 79% | 1013.7 hPa | 0 mm | - | 7 W/m² | - |
| 1778025614 | 22.78° C | 77% | 1013.8 hPa | 0 mm | - | 28 W/m² | - |
* Rain latest hour (hover to see other rain measurements)
** Current wind speed in m/s (hover to see current wind gust speed)